sensor_id;sensor_type;location;lat;lon;timestamp;pressure;altitude;pressure_sealevel;temperature;humidity
13594;BME280;6449;47.666;9.160;2023-04-15T00:00:51;96065.94;;;5.47;100.00
13594;BME280;6449;47.666;9.160;2023-04-15T00:05:44;96060.84;;;5.45;100.00
13594;BME280;6449;47.666;9.160;2023-04-15T00:10:38;96059.38;;;5.41;100.00
13594;BME280;6449;47.666;9.160;2023-04-15T00:15:33;96054.97;;;5.67;100.00
13594;BME280;6449;47.666;9.160;2023-04-15T00:20:26;96058.44;;;5.55;100.00
13594;BME280;6449;47.666;9.160;2023-04-15T00:25:19;96062.19;;;5.51;100.00
13594;BME280;6449;47.666;9.160;2023-04-15T00:30:13;96056.81;;;5.29;100.00
13594;BME280;6449;47.666;9.160;2023-04-15T00:35:08;96065.63;;;5.13;100.00
13594;BME280;6449;47.666;9.160;2023-04-15T00:40:02;96061.16;;;5.03;100.00
13594;BME280;6449;47.666;9.160;2023-04-15T00:44:56;96055.03;;;5.04;100.00
13594;BME280;6449;47.666;9.160;2023-04-15T00:49:50;96059.41;;;5.03;100.00
13594;BME280;6449;47.666;9.160;2023-04-15T00:54:45;96060.84;;;5.07;100.00
13594;BME280;6449;47.666;9.160;2023-04-15T00:59:38;96054.00;;;5.06;100.00
13594;BME280;6449;47.666;9.160;2023-04-15T01:04:32;96057.63;;;5.04;100.00
13594;BME280;6449;47.666;9.160;2023-04-15T01:09:25;96066.34;;;5.03;100.00
13594;BME280;6449;47.666;9.160;2023-04-15T01:14:20;96073.41;;;4.88;100.00
13594;BME280;6449;47.666;9.160;2023-04-15T01:19:16;96071.50;;;4.77;100.00
13594;BME280;6449;47.666;9.160;2023-04-15T01:24:10;96061.97;;;4.78;100.00
13594;BME280;6449;47.666;9.160;2023-04-15T01:29:07;96075.16;;;4.87;100.00
13594;BME280;6449;47.666;9.160;2023-04-15T01:34:00;96076.63;;;4.91;100.00
13594;BME280;6449;47.666;9.160;2023-04-15T01:38:55;96073.22;;;4.91;100.00
13594;BME280;6449;47.666;9.160;2023-04-15T01:43:49;96076.41;;;4.82;100.00
13594;BME280;6449;47.666;9.160;2023-04-15T01:48:44;96073.09;;;4.80;100.00
13594;BME280;6449;47.666;9.160;2023-04-15T01:53:38;96073.47;;;4.73;100.00
13594;BME280;6449;47.666;9.160;2023-04-15T01:58:31;96070.72;;;4.50;100.00
13594;BME280;6449;47.666;9.160;2023-04-15T02:03:25;96080.81;;;4.54;100.00
13594;BME280;6449;47.666;9.160;2023-04-15T02:08:20;96077.53;;;4.65;100.00
13594;BME280;6449;47.666;9.160;2023-04-15T02:13:13;96081.59;;;4.42;100.00
13594;BME280;6449;47.666;9.160;2023-04-15T02:18:07;96083.31;;;4.29;100.00
13594;BME280;6449;47.666;9.160;2023-04-15T02:23:01;96086.97;;;4.26;100.00
13594;BME280;6449;47.666;9.160;2023-04-15T02:27:59;96086.72;;;4.16;100.00
13594;BME280;6449;47.666;9.160;2023-04-15T02:32:52;96096.03;;;4.19;100.00
13594;BME280;6449;47.666;9.160;2023-04-15T02:37:47;96084.97;;;4.30;100.00
13594;BME280;6449;47.666;9.160;2023-04-15T02:42:41;96081.28;;;4.34;100.00
13594;BME280;6449;47.666;9.160;2023-04-15T02:47:36;96075.00;;;4.24;100.00
13594;BME280;6449;47.666;9.160;2023-04-15T02:52:32;96075.03;;;4.36;100.00
13594;BME280;6449;47.666;9.160;2023-04-15T02:57:26;96070.59;;;4.11;100.00
13594;BME280;6449;47.666;9.160;2023-04-15T03:02:20;96084.03;;;4.04;100.00
13594;BME280;6449;47.666;9.160;2023-04-15T03:07:16;96088.75;;;4.11;100.00
13594;BME280;6449;47.666;9.160;2023-04-15T03:12:10;96091.78;;;4.18;100.00
13594;BME280;6449;47.666;9.160;2023-04-15T03:17:03;96095.25;;;4.04;100.00
13594;BME280;6449;47.666;9.160;2023-04-15T03:21:56;96089.88;;;4.07;100.00
13594;BME280;6449;47.666;9.160;2023-04-15T03:26:51;96091.34;;;4.11;100.00
13594;BME280;6449;47.666;9.160;2023-04-15T03:31:46;96083.03;;;4.06;100.00
13594;BME280;6449;47.666;9.160;2023-04-15T03:36:39;96086.63;;;4.04;100.00
13594;BME280;6449;47.666;9.160;2023-04-15T03:41:32;96082.13;;;3.93;100.00
13594;BME280;6449;47.666;9.160;2023-04-15T03:46:27;96081.25;;;4.07;100.00
13594;BME280;6449;47.666;9.160;2023-04-15T03:51:20;96081.16;;;4.08;100.00
13594;BME280;6449;47.666;9.160;2023-04-15T03:56:14;96075.03;;;4.09;100.00
13594;BME280;6449;47.666;9.160;2023-04-15T04:01:08;96084.78;;;4.06;100.00
13594;BME280;6449;47.666;9.160;2023-04-15T04:06:03;96079.09;;;4.13;100.00
13594;BME280;6449;47.666;9.160;2023-04-15T04:10:56;96080.84;;;3.86;100.00
13594;BME280;6449;47.666;9.160;2023-04-15T04:15:49;96087.25;;;3.66;100.00
13594;BME280;6449;47.666;9.160;2023-04-15T04:20:43;96085.59;;;3.51;100.00
13594;BME280;6449;47.666;9.160;2023-04-15T04:25:38;96085.88;;;3.75;100.00
13594;BME280;6449;47.666;9.160;2023-04-15T04:30:31;96100.31;;;3.64;100.00
13594;BME280;6449;47.666;9.160;2023-04-15T04:35:25;96099.66;;;3.18;100.00
13594;BME280;6449;47.666;9.160;2023-04-15T04:40:18;96094.97;;;3.53;100.00
13594;BME280;6449;47.666;9.160;2023-04-15T04:45:13;96090.28;;;3.73;100.00
13594;BME280;6449;47.666;9.160;2023-04-15T04:50:08;96093.44;;;3.92;100.00
13594;BME280;6449;47.666;9.160;2023-04-15T04:55:03;96084.69;;;4.07;100.00
13594;BME280;6449;47.666;9.160;2023-04-15T04:59:56;96088.75;;;4.11;100.00
13594;BME280;6449;47.666;9.160;2023-04-15T05:04:51;96092.09;;;3.99;100.00
13594;BME280;6449;47.666;9.160;2023-04-15T05:09:45;96096.03;;;4.19;100.00
13594;BME280;6449;47.666;9.160;2023-04-15T05:14:38;96089.84;;;4.22;100.00
13594;BME280;6449;47.666;9.160;2023-04-15T05:19:32;96083.31;;;4.29;100.00
13594;BME280;6449;47.666;9.160;2023-04-15T05:24:26;96082.28;;;4.58;100.00
13594;BME280;6449;47.666;9.160;2023-04-15T05:29:20;96092.28;;;4.77;100.00
13594;BME280;6449;47.666;9.160;2023-04-15T05:34:13;96095.16;;;4.60;100.00
13594;BME280;6449;47.666;9.160;2023-04-15T05:39:08;96093.34;;;4.87;100.00
13594;BME280;6449;47.666;9.160;2023-04-15T05:44:03;96095.78;;;5.29;100.00
13594;BME280;6449;47.666;9.160;2023-04-15T05:48:57;96091.72;;;5.24;100.00
13594;BME280;6449;47.666;9.160;2023-04-15T05:53:50;96090.19;;;5.22;100.00
13594;BME280;6449;47.666;9.160;2023-04-15T05:58:44;96091.31;;;5.31;100.00
13594;BME280;6449;47.666;9.160;2023-04-15T06:03:38;96095.78;;;5.54;100.00
13594;BME280;6449;47.666;9.160;2023-04-15T06:08:32;96092.09;;;5.95;100.00
13594;BME280;6449;47.666;9.160;2023-04-15T06:13:28;96089.88;;;5.89;100.00
13594;BME280;6449;47.666;9.160;2023-04-15T06:18:21;96094.91;;;5.79;100.00
13594;BME280;6449;47.666;9.160;2023-04-15T06:23:16;96086.75;;;5.96;100.00
13594;BME280;6449;47.666;9.160;2023-04-15T06:28:10;96084.66;;;6.01;100.00
13594;BME280;6449;47.666;9.160;2023-04-15T06:33:03;96086.75;;;6.33;100.00
13594;BME280;6449;47.666;9.160;2023-04-15T06:37:57;96086.09;;;6.18;100.00
13594;BME280;6449;47.666;9.160;2023-04-15T06:42:52;96098.56;;;6.26;100.00
13594;BME280;6449;47.666;9.160;2023-04-15T06:47:45;96096.56;;;6.53;100.00
13594;BME280;6449;47.666;9.160;2023-04-15T06:52:39;96096.72;;;6.63;100.00
13594;BME280;6449;47.666;9.160;2023-04-15T06:57:32;96100.28;;;6.97;100.00
13594;BME280;6449;47.666;9.160;2023-04-15T07:02:27;96107.81;;;7.24;100.00
13594;BME280;6449;47.666;9.160;2023-04-15T07:07:21;96102.72;;;7.34;100.00
13594;BME280;6449;47.666;9.160;2023-04-15T07:12:14;96113.41;;;7.42;100.00
13594;BME280;6449;47.666;9.160;2023-04-15T07:17:08;96110.34;;;7.48;100.00
13594;BME280;6449;47.666;9.160;2023-04-15T07:22:03;96116.06;;;7.76;100.00
13594;BME280;6449;47.666;9.160;2023-04-15T07:26:57;96105.84;;;7.61;100.00
13594;BME280;6449;47.666;9.160;2023-04-15T07:31:52;96104.53;;;7.56;100.00
13594;BME280;6449;47.666;9.160;2023-04-15T07:36:47;96107.38;;;7.98;100.00
13594;BME280;6449;47.666;9.160;2023-04-15T07:41:43;96106.53;;;8.20;100.00
13594;BME280;6449;47.666;9.160;2023-04-15T07:46:36;96109.97;;;8.31;100.00
13594;BME280;6449;47.666;9.160;2023-04-15T07:51:30;96107.59;;;8.39;100.00
13594;BME280;6449;47.666;9.160;2023-04-15T07:56:23;96110.44;;;8.48;100.00
13594;BME280;6449;47.666;9.160;2023-04-15T08:01:18;96115.16;;;8.54;100.00
13594;BME280;6449;47.666;9.160;2023-04-15T08:06:12;96118.00;;;8.51;100.00
13594;BME280;6449;47.666;9.160;2023-04-15T08:11:06;96110.75;;;8.54;100.00
13594;BME280;6449;47.666;9.160;2023-04-15T08:16:19;96117.59;;;8.66;100.00
13594;BME280;6449;47.666;9.160;2023-04-15T08:21:14;96111.88;;;8.73;100.00
13594;BME280;6449;47.666;9.160;2023-04-15T08:26:08;96106.59;;;8.63;100.00
13594;BME280;6449;47.666;9.160;2023-04-15T08:31:02;96114.44;;;8.52;100.00
13594;BME280;6449;47.666;9.160;2023-04-15T08:35:56;96113.56;;;8.62;100.00
13594;BME280;6449;47.666;9.160;2023-04-15T08:40:50;96110.09;;;8.73;100.00
13594;BME280;6449;47.666;9.160;2023-04-15T08:45:45;96109.31;;;8.93;100.00
13594;BME280;6449;47.666;9.160;2023-04-15T08:50:40;96109.13;;;8.85;100.00
13594;BME280;6449;47.666;9.160;2023-04-15T08:55:41;96107.19;;;8.87;100.00
13594;BME280;6449;47.666;9.160;2023-04-15T09:00:36;96107.63;;;8.72;100.00
13594;BME280;6449;47.666;9.160;2023-04-15T09:05:31;96103.25;;;8.93;100.00
13594;BME280;6449;47.666;9.160;2023-04-15T09:10:25;96099.97;;;9.33;100.00
13594;BME280;6449;47.666;9.160;2023-04-15T09:15:21;96101.31;;;9.58;100.00
13594;BME280;6449;47.666;9.160;2023-04-15T09:20:16;96108.69;;;9.74;100.00
13594;BME280;6449;47.666;9.160;2023-04-15T09:25:28;96111.06;;;9.77;100.00
13594;BME280;6449;47.666;9.160;2023-04-15T09:30:27;96117.78;;;10.00;100.00
13594;BME280;6449;47.666;9.160;2023-04-15T09:35:23;96107.63;;;10.07;100.00
13594;BME280;6449;47.666;9.160;2023-04-15T09:40:31;96105.16;;;10.15;100.00
13594;BME280;6449;47.666;9.160;2023-04-15T09:45:26;96112.16;;;10.45;100.00
13594;BME280;6449;47.666;9.160;2023-04-15T09:50:20;96114.38;;;10.59;100.00
13594;BME280;6449;47.666;9.160;2023-04-15T09:55:17;96111.47;;;10.53;100.00
13594;BME280;6449;47.666;9.160;2023-04-15T10:00:12;96104.75;;;10.79;100.00
13594;BME280;6449;47.666;9.160;2023-04-15T10:05:10;96105.59;;;10.89;100.00
13594;BME280;6449;47.666;9.160;2023-04-15T10:10:07;96105.75;;;10.97;100.00
13594;BME280;6449;47.666;9.160;2023-04-15T10:15:05;96111.81;;;10.98;100.00
13594;BME280;6449;47.666;9.160;2023-04-15T10:20:00;96110.28;;;10.95;100.00
13594;BME280;6449;47.666;9.160;2023-04-15T10:24:56;96111.94;;;11.06;100.00
13594;BME280;6449;47.666;9.160;2023-04-15T10:29:51;96113.16;;;11.21;100.00
13594;BME280;6449;47.666;9.160;2023-04-15T10:34:45;96115.38;;;11.36;100.00
13594;BME280;6449;47.666;9.160;2023-04-15T10:39:41;96111.63;;;11.38;100.00
13594;BME280;6449;47.666;9.160;2023-04-15T10:44:37;96107.59;;;11.53;100.00
13594;BME280;6449;47.666;9.160;2023-04-15T10:49:31;96114.06;;;11.59;100.00
13594;BME280;6449;47.666;9.160;2023-04-15T10:54:31;96112.50;;;11.76;100.00
13594;BME280;6449;47.666;9.160;2023-04-15T10:59:28;96110.84;;;11.75;100.00
13594;BME280;6449;47.666;9.160;2023-04-15T11:04:53;96114.31;;;11.85;100.00
13594;BME280;6449;47.666;9.160;2023-04-15T11:09:48;96119.69;;;11.74;100.00
13594;BME280;6449;47.666;9.160;2023-04-15T11:14:41;96125.09;;;11.72;100.00
13594;BME280;6449;47.666;9.160;2023-04-15T11:19:36;96124.41;;;11.70;100.00
13594;BME280;6449;47.666;9.160;2023-04-15T11:24:31;96126.19;;;11.70;100.00
13594;BME280;6449;47.666;9.160;2023-04-15T11:29:29;96120.63;;;11.92;100.00
13594;BME280;6449;47.666;9.160;2023-04-15T11:34:23;96125.47;;;12.24;100.00
13594;BME280;6449;47.666;9.160;2023-04-15T11:39:21;96117.53;;;12.62;100.00
13594;BME280;6449;47.666;9.160;2023-04-15T11:44:19;96118.09;;;13.01;98.91
13594;BME280;6449;47.666;9.160;2023-04-15T11:49:26;96124.13;;;13.29;99.42
13594;BME280;6449;47.666;9.160;2023-04-15T11:54:19;96138.44;;;13.26;93.15
13594;BME280;6449;47.666;9.160;2023-04-15T11:59:13;96138.38;;;13.08;91.81
13594;BME280;6449;47.666;9.160;2023-04-15T12:04:12;96141.47;;;13.04;91.81
13594;BME280;6449;47.666;9.160;2023-04-15T12:09:10;96150.72;;;13.08;90.59
13594;BME280;6449;47.666;9.160;2023-04-15T12:14:11;96159.38;;;13.00;88.56
13594;BME280;6449;47.666;9.160;2023-04-15T12:19:08;96174.59;;;12.79;96.78
13594;BME280;6449;47.666;9.160;2023-04-15T12:24:06;96180.19;;;12.66;100.00
13594;BME280;6449;47.666;9.160;2023-04-15T12:29:02;96172.22;;;12.58;100.00
13594;BME280;6449;47.666;9.160;2023-04-15T12:33:56;96179.84;;;12.51;100.00
13594;BME280;6449;47.666;9.160;2023-04-15T12:38:50;96181.56;;;12.43;100.00
13594;BME280;6449;47.666;9.160;2023-04-15T12:43:45;96191.91;;;12.54;100.00
13594;BME280;6449;47.666;9.160;2023-04-15T12:48:39;96192.75;;;12.72;100.00
13594;BME280;6449;47.666;9.160;2023-04-15T12:53:41;96192.41;;;12.85;88.33
13594;BME280;6449;47.666;9.160;2023-04-15T12:58:53;96204.50;;;12.78;91.22
13594;BME280;6449;47.666;9.160;2023-04-15T13:03:47;96216.16;;;12.75;91.14
13594;BME280;6449;47.666;9.160;2023-04-15T13:08:42;96201.47;;;12.73;84.90
13594;BME280;6449;47.666;9.160;2023-04-15T13:13:49;96211.94;;;12.82;88.45
13594;BME280;6449;47.666;9.160;2023-04-15T13:18:45;96226.22;;;12.80;92.38
13594;BME280;6449;47.666;9.160;2023-04-15T13:23:38;96222.56;;;12.91;90.08
13594;BME280;6449;47.666;9.160;2023-04-15T13:28:31;96227.53;;;12.94;91.06
13594;BME280;6449;47.666;9.160;2023-04-15T13:33:25;96232.41;;;12.89;90.76
13594;BME280;6449;47.666;9.160;2023-04-15T13:38:20;96222.44;;;13.10;83.46
13594;BME280;6449;47.666;9.160;2023-04-15T13:43:13;96243.22;;;13.13;95.23
13594;BME280;6449;47.666;9.160;2023-04-15T13:48:07;96225.56;;;13.23;80.88
13594;BME280;6449;47.666;9.160;2023-04-15T13:53:00;96234.41;;;13.32;83.19
13594;BME280;6449;47.666;9.160;2023-04-15T13:57:57;96241.81;;;13.36;85.55
13594;BME280;6449;47.666;9.160;2023-04-15T14:02:50;96230.09;;;13.67;80.91
13594;BME280;6449;47.666;9.160;2023-04-15T14:07:44;96238.38;;;13.72;81.01
13594;BME280;6449;47.666;9.160;2023-04-15T14:12:38;96240.72;;;13.75;80.55
13594;BME280;6449;47.666;9.160;2023-04-15T14:17:33;96244.91;;;13.68;81.64
13594;BME280;6449;47.666;9.160;2023-04-15T14:22:29;96255.69;;;13.56;75.58
13594;BME280;6449;47.666;9.160;2023-04-15T14:27:22;96249.16;;;13.43;74.06
13594;BME280;6449;47.666;9.160;2023-04-15T14:32:16;96263.81;;;13.45;75.86
13594;BME280;6449;47.666;9.160;2023-04-15T14:37:11;96274.81;;;13.58;76.26
13594;BME280;6449;47.666;9.160;2023-04-15T14:42:04;96286.75;;;13.53;79.52
13594;BME280;6449;47.666;9.160;2023-04-15T14:46:57;96292.69;;;13.37;83.43
13594;BME280;6449;47.666;9.160;2023-04-15T14:51:51;96314.41;;;13.11;91.92
13594;BME280;6449;47.666;9.160;2023-04-15T14:56:45;96317.25;;;13.00;93.79
13594;BME280;6449;47.666;9.160;2023-04-15T15:01:39;96325.97;;;13.01;91.92
13594;BME280;6449;47.666;9.160;2023-04-15T15:06:33;96328.59;;;13.01;97.55
13594;BME280;6449;47.666;9.160;2023-04-15T15:11:27;96335.31;;;12.85;97.40
13594;BME280;6449;47.666;9.160;2023-04-15T15:16:22;96346.69;;;12.76;100.00
13594;BME280;6449;47.666;9.160;2023-04-15T15:21:15;96358.94;;;12.48;100.00
13594;BME280;6449;47.666;9.160;2023-04-15T15:26:09;96371.16;;;12.20;100.00
13594;BME280;6449;47.666;9.160;2023-04-15T15:31:02;96374.59;;;11.92;100.00
13594;BME280;6449;47.666;9.160;2023-04-15T15:35:58;96375.97;;;11.86;100.00
13594;BME280;6449;47.666;9.160;2023-04-15T15:40:52;96380.25;;;11.97;100.00
13594;BME280;6449;47.666;9.160;2023-04-15T15:45:45;96397.81;;;11.96;100.00
13594;BME280;6449;47.666;9.160;2023-04-15T15:50:43;96382.47;;;11.92;100.00
13594;BME280;6449;47.666;9.160;2023-04-15T15:55:37;96400.03;;;11.91;100.00
13594;BME280;6449;47.666;9.160;2023-04-15T16:00:31;96406.50;;;11.77;100.00
13594;BME280;6449;47.666;9.160;2023-04-15T16:05:24;96413.66;;;11.75;100.00
13594;BME280;6449;47.666;9.160;2023-04-15T16:10:18;96419.44;;;11.60;100.00
13594;BME280;6449;47.666;9.160;2023-04-15T16:15:13;96429.34;;;11.46;100.00
13594;BME280;6449;47.666;9.160;2023-04-15T16:20:07;96429.72;;;11.32;100.00
13594;BME280;6449;47.666;9.160;2023-04-15T16:25:01;96437.84;;;11.29;100.00
13594;BME280;6449;47.666;9.160;2023-04-15T16:29:54;96420.56;;;11.26;100.00
13594;BME280;6449;47.666;9.160;2023-04-15T16:34:50;96434.91;;;11.22;100.00
13594;BME280;6449;47.666;9.160;2023-04-15T16:39:44;96452.09;;;11.06;100.00
13594;BME280;6449;47.666;9.160;2023-04-15T16:44:37;96478.31;;;11.06;100.00
13594;BME280;6449;47.666;9.160;2023-04-15T16:49:30;96489.09;;;11.02;100.00
13594;BME280;6449;47.666;9.160;2023-04-15T16:54:27;96509.72;;;10.75;100.00
13594;BME280;6449;47.666;9.160;2023-04-15T16:59:21;96533.44;;;10.53;100.00
13594;BME280;6449;47.666;9.160;2023-04-15T17:04:14;96549.38;;;10.61;100.00
13594;BME280;6449;47.666;9.160;2023-04-15T17:09:07;96551.66;;;10.54;100.00
13594;BME280;6449;47.666;9.160;2023-04-15T17:14:03;96556.06;;;10.54;100.00
13594;BME280;6449;47.666;9.160;2023-04-15T17:18:56;96566.03;;;10.71;100.00
13594;BME280;6449;47.666;9.160;2023-04-15T17:23:50;96578.91;;;10.63;100.00
13594;BME280;6449;47.666;9.160;2023-04-15T17:28:44;96585.63;;;10.56;100.00
13594;BME280;6449;47.666;9.160;2023-04-15T17:33:39;96594.53;;;10.53;100.00
13594;BME280;6449;47.666;9.160;2023-04-15T17:38:55;96602.06;;;10.46;100.00
13594;BME280;6449;47.666;9.160;2023-04-15T17:43:48;96608.28;;;10.45;100.00
13594;BME280;6449;47.666;9.160;2023-04-15T17:48:43;96613.03;;;10.52;100.00
13594;BME280;6449;47.666;9.160;2023-04-15T17:53:36;96622.34;;;10.44;100.00
13594;BME280;6449;47.666;9.160;2023-04-15T17:58:30;96638.53;;;10.38;100.00
13594;BME280;6449;47.666;9.160;2023-04-15T18:03:23;96650.34;;;10.44;100.00
13594;BME280;6449;47.666;9.160;2023-04-15T18:08:19;96664.25;;;10.33;100.00
13594;BME280;6449;47.666;9.160;2023-04-15T18:13:12;96671.13;;;10.12;100.00
13594;BME280;6449;47.666;9.160;2023-04-15T18:18:05;96676.75;;;10.07;100.00
13594;BME280;6449;47.666;9.160;2023-04-15T18:22:59;96681.25;;;10.05;100.00
13594;BME280;6449;47.666;9.160;2023-04-15T18:27:53;96679.94;;;9.88;100.00
13594;BME280;6449;47.666;9.160;2023-04-15T18:32:47;96687.31;;;9.94;100.00
13594;BME280;6449;47.666;9.160;2023-04-15T18:37:41;96703.84;;;9.73;100.00
13594;BME280;6449;47.666;9.160;2023-04-15T18:42:34;96726.88;;;9.56;100.00
13594;BME280;6449;47.666;9.160;2023-04-15T18:47:29;96717.97;;;9.59;100.00
13594;BME280;6449;47.666;9.160;2023-04-15T18:52:22;96710.50;;;9.65;100.00
13594;BME280;6449;47.666;9.160;2023-04-15T18:57:15;96728.00;;;9.65;100.00
13594;BME280;6449;47.666;9.160;2023-04-15T19:02:23;96731.31;;;9.67;100.00
13594;BME280;6449;47.666;9.160;2023-04-15T19:07:18;96752.09;;;9.57;100.00
13594;BME280;6449;47.666;9.160;2023-04-15T19:12:11;96773.91;;;9.69;100.00
13594;BME280;6449;47.666;9.160;2023-04-15T19:17:04;96777.44;;;9.57;100.00
13594;BME280;6449;47.666;9.160;2023-04-15T19:21:58;96782.00;;;9.66;100.00
13594;BME280;6449;47.666;9.160;2023-04-15T19:26:54;96788.72;;;9.81;100.00
13594;BME280;6449;47.666;9.160;2023-04-15T19:31:48;96806.28;;;9.44;100.00
13594;BME280;6449;47.666;9.160;2023-04-15T19:36:41;96813.91;;;9.23;100.00
13594;BME280;6449;47.666;9.160;2023-04-15T19:41:35;96813.59;;;9.28;100.00
13594;BME280;6449;47.666;9.160;2023-04-15T19:46:31;96794.38;;;9.40;100.00
13594;BME280;6449;47.666;9.160;2023-04-15T19:51:25;96796.16;;;9.39;100.00
13594;BME280;6449;47.666;9.160;2023-04-15T19:56:19;96802.56;;;9.35;100.00
13594;BME280;6449;47.666;9.160;2023-04-15T20:01:14;96793.63;;;9.14;100.00
13594;BME280;6449;47.666;9.160;2023-04-15T20:06:09;96800.19;;;8.96;100.00
13594;BME280;6449;47.666;9.160;2023-04-15T20:11:03;96811.72;;;8.80;100.00
13594;BME280;6449;47.666;9.160;2023-04-15T20:15:56;96809.63;;;8.73;100.00
13594;BME280;6449;47.666;9.160;2023-04-15T20:20:50;96794.13;;;8.95;100.00
13594;BME280;6449;47.666;9.160;2023-04-15T20:26:02;96794.00;;;8.97;100.00
13594;BME280;6449;47.666;9.160;2023-04-15T20:30:59;96797.56;;;8.96;100.00
13594;BME280;6449;47.666;9.160;2023-04-15T20:35:59;96803.28;;;9.13;100.00
13594;BME280;6449;47.666;9.160;2023-04-15T20:40:52;96806.84;;;9.00;100.00
13594;BME280;6449;47.666;9.160;2023-04-15T20:45:48;96795.47;;;9.01;100.00
13594;BME280;6449;47.666;9.160;2023-04-15T20:50:42;96788.22;;;9.04;100.00
13594;BME280;6449;47.666;9.160;2023-04-15T20:55:35;96785.16;;;9.10;100.00
13594;BME280;6449;47.666;9.160;2023-04-15T21:00:29;96789.72;;;8.96;100.00
13594;BME280;6449;47.666;9.160;2023-04-15T21:05:25;96792.78;;;8.89;100.00
13594;BME280;6449;47.666;9.160;2023-04-15T21:10:21;96794.16;;;8.82;100.00
13594;BME280;6449;47.666;9.160;2023-04-15T21:15:15;96805.41;;;8.96;100.00
13594;BME280;6449;47.666;9.160;2023-04-15T21:20:10;96805.13;;;8.87;100.00
13594;BME280;6449;47.666;9.160;2023-04-15T21:25:06;96820.28;;;8.95;100.00
13594;BME280;6449;47.666;9.160;2023-04-15T21:29:59;96815.28;;;8.79;100.00
13594;BME280;6449;47.666;9.160;2023-04-15T21:34:53;96811.28;;;8.86;100.00
13594;BME280;6449;47.666;9.160;2023-04-15T21:39:46;96827.09;;;8.85;100.00
13594;BME280;6449;47.666;9.160;2023-04-15T21:44:41;96822.84;;;8.58;100.00
13594;BME280;6449;47.666;9.160;2023-04-15T21:49:34;96825.13;;;8.76;100.00
13594;BME280;6449;47.666;9.160;2023-04-15T21:54:28;96829.72;;;8.72;100.00
13594;BME280;6449;47.666;9.160;2023-04-15T21:59:22;96828.56;;;8.76;100.00
13594;BME280;6449;47.666;9.160;2023-04-15T22:04:16;96830.97;;;8.41;100.00
13594;BME280;6449;47.666;9.160;2023-04-15T22:09:10;96828.69;;;8.36;100.00
13594;BME280;6449;47.666;9.160;2023-04-15T22:14:05;96826.63;;;8.42;100.00
13594;BME280;6449;47.666;9.160;2023-04-15T22:18:58;96832.03;;;8.51;100.00
13594;BME280;6449;47.666;9.160;2023-04-15T22:23:55;96823.66;;;8.59;100.00
13594;BME280;6449;47.666;9.160;2023-04-15T22:29:08;96829.94;;;8.56;100.00
13594;BME280;6449;47.666;9.160;2023-04-15T22:34:02;96835.38;;;8.53;100.00
13594;BME280;6449;47.666;9.160;2023-04-15T22:38:56;96841.31;;;8.55;100.00
13594;BME280;6449;47.666;9.160;2023-04-15T22:43:50;96844.16;;;8.52;100.00
13594;BME280;6449;47.666;9.160;2023-04-15T22:48:43;96852.50;;;8.45;100.00
13594;BME280;6449;47.666;9.160;2023-04-15T22:53:36;96852.00;;;8.52;100.00
13594;BME280;6449;47.666;9.160;2023-04-15T22:58:31;96862.53;;;8.51;100.00
13594;BME280;6449;47.666;9.160;2023-04-15T23:03:24;96867.56;;;8.54;100.00
13594;BME280;6449;47.666;9.160;2023-04-15T23:08:19;96864.41;;;8.36;100.00
13594;BME280;6449;47.666;9.160;2023-04-15T23:13:14;96869.59;;;8.23;100.00
13594;BME280;6449;47.666;9.160;2023-04-15T23:18:09;96879.22;;;8.35;100.00
13594;BME280;6449;47.666;9.160;2023-04-15T23:23:02;96873.56;;;8.16;100.00
13594;BME280;6449;47.666;9.160;2023-04-15T23:27:56;96881.81;;;8.23;100.00
13594;BME280;6449;47.666;9.160;2023-04-15T23:32:49;96883.72;;;8.21;100.00
13594;BME280;6449;47.666;9.160;2023-04-15T23:37:44;96882.13;;;8.18;100.00
13594;BME280;6449;47.666;9.160;2023-04-15T23:42:37;96879.81;;;8.13;100.00
13594;BME280;6449;47.666;9.160;2023-04-15T23:47:30;96883.34;;;8.00;100.00
13594;BME280;6449;47.666;9.160;2023-04-15T23:52:24;96878.44;;;8.08;100.00
13594;BME280;6449;47.666;9.160;2023-04-15T23:57:19;96882.72;;;8.09;100.00
